sensor_id;sensor_type;location;lat;lon;timestamp;temperature;humidity
25983;DHT22;13773;48.868;10.730;2023-09-19T00:00:42;15.00;99.90
25983;DHT22;13773;48.868;10.730;2023-09-19T00:03:09;15.00;99.90
25983;DHT22;13773;48.868;10.730;2023-09-19T00:05:37;15.00;99.90
25983;DHT22;13773;48.868;10.730;2023-09-19T00:08:04;15.00;99.90
25983;DHT22;13773;48.868;10.730;2023-09-19T00:10:31;15.00;99.90
25983;DHT22;13773;48.868;10.730;2023-09-19T00:13:01;15.10;99.90
25983;DHT22;13773;48.868;10.730;2023-09-19T00:15:31;15.00;99.90
25983;DHT22;13773;48.868;10.730;2023-09-19T00:18:01;15.10;99.90
25983;DHT22;13773;48.868;10.730;2023-09-19T00:20:26;15.10;99.90
25983;DHT22;13773;48.868;10.730;2023-09-19T00:22:55;15.10;99.90
25983;DHT22;13773;48.868;10.730;2023-09-19T00:25:20;15.10;99.90
25983;DHT22;13773;48.868;10.730;2023-09-19T00:27:47;15.10;99.90
25983;DHT22;13773;48.868;10.730;2023-09-19T00:30:15;15.10;99.90
25983;DHT22;13773;48.868;10.730;2023-09-19T00:32:42;15.10;99.90
25983;DHT22;13773;48.868;10.730;2023-09-19T00:35:09;15.10;99.90
25983;DHT22;13773;48.868;10.730;2023-09-19T00:37:36;15.10;99.90
25983;DHT22;13773;48.868;10.730;2023-09-19T00:40:03;15.10;99.90
25983;DHT22;13773;48.868;10.730;2023-09-19T00:42:31;15.10;99.90
25983;DHT22;13773;48.868;10.730;2023-09-19T00:44:57;15.10;99.90
25983;DHT22;13773;48.868;10.730;2023-09-19T00:47:23;15.10;99.90
25983;DHT22;13773;48.868;10.730;2023-09-19T00:49:48;15.10;99.90
25983;DHT22;13773;48.868;10.730;2023-09-19T00:52:14;15.10;99.90
25983;DHT22;13773;48.868;10.730;2023-09-19T00:54:41;15.10;99.90
25983;DHT22;13773;48.868;10.730;2023-09-19T00:57:07;15.10;99.90
25983;DHT22;13773;48.868;10.730;2023-09-19T00:59:34;15.10;99.90
25983;DHT22;13773;48.868;10.730;2023-09-19T01:02:02;15.10;99.90
25983;DHT22;13773;48.868;10.730;2023-09-19T01:04:29;15.10;99.90
25983;DHT22;13773;48.868;10.730;2023-09-19T01:06:54;15.10;99.90
25983;DHT22;13773;48.868;10.730;2023-09-19T01:09:21;15.10;99.90
25983;DHT22;13773;48.868;10.730;2023-09-19T01:11:48;15.20;99.90
25983;DHT22;13773;48.868;10.730;2023-09-19T01:17:03;15.20;99.90
25983;DHT22;13773;48.868;10.730;2023-09-19T01:30:52;15.20;99.90
25983;DHT22;13773;48.868;10.730;2023-09-19T01:33:23;15.20;99.90
25983;DHT22;13773;48.868;10.730;2023-09-19T01:35:49;15.10;99.90
25983;DHT22;13773;48.868;10.730;2023-09-19T01:38:16;15.10;99.90
25983;DHT22;13773;48.868;10.730;2023-09-19T01:40:43;16.00;99.90
25983;DHT22;13773;48.868;10.730;2023-09-19T01:43:28;15.10;99.90
25983;DHT22;13773;48.868;10.730;2023-09-19T01:46:15;15.00;99.90
25983;DHT22;13773;48.868;10.730;2023-09-19T01:51:48;14.90;99.90
25983;DHT22;13773;48.868;10.730;2023-09-19T01:54:20;14.90;99.90
25983;DHT22;13773;48.868;10.730;2023-09-19T01:56:54;14.80;99.90
25983;DHT22;13773;48.868;10.730;2023-09-19T01:59:26;14.80;99.90
25983;DHT22;13773;48.868;10.730;2023-09-19T02:01:54;14.70;99.90
25983;DHT22;13773;48.868;10.730;2023-09-19T02:04:20;14.70;99.90
25983;DHT22;13773;48.868;10.730;2023-09-19T02:06:46;14.60;99.90
25983;DHT22;13773;48.868;10.730;2023-09-19T02:09:15;14.60;99.90
25983;DHT22;13773;48.868;10.730;2023-09-19T02:11:41;14.60;99.90
25983;DHT22;13773;48.868;10.730;2023-09-19T02:14:08;14.50;99.90
25983;DHT22;13773;48.868;10.730;2023-09-19T02:16:34;13.30;99.90
25983;DHT22;13773;48.868;10.730;2023-09-19T02:19:00;14.40;99.90
25983;DHT22;13773;48.868;10.730;2023-09-19T02:21:26;14.40;99.90
25983;DHT22;13773;48.868;10.730;2023-09-19T02:23:55;14.30;99.90
25983;DHT22;13773;48.868;10.730;2023-09-19T02:26:21;14.20;99.90
25983;DHT22;13773;48.868;10.730;2023-09-19T02:28:48;14.20;99.90
25983;DHT22;13773;48.868;10.730;2023-09-19T02:31:14;14.30;99.90
25983;DHT22;13773;48.868;10.730;2023-09-19T02:33:42;14.30;99.90
25983;DHT22;13773;48.868;10.730;2023-09-19T02:36:07;14.30;99.90
25983;DHT22;13773;48.868;10.730;2023-09-19T02:38:34;14.30;99.90
25983;DHT22;13773;48.868;10.730;2023-09-19T02:41:00;14.30;99.90
25983;DHT22;13773;48.868;10.730;2023-09-19T02:43:25;14.30;99.90
25983;DHT22;13773;48.868;10.730;2023-09-19T02:45:52;14.30;99.90
25983;DHT22;13773;48.868;10.730;2023-09-19T02:48:20;14.30;99.90
25983;DHT22;13773;48.868;10.730;2023-09-19T02:50:49;14.30;99.90
25983;DHT22;13773;48.868;10.730;2023-09-19T02:53:15;14.30;99.90
25983;DHT22;13773;48.868;10.730;2023-09-19T02:55:41;14.40;99.90
25983;DHT22;13773;48.868;10.730;2023-09-19T02:58:07;14.40;99.90
25983;DHT22;13773;48.868;10.730;2023-09-19T03:00:40;14.40;99.90
25983;DHT22;13773;48.868;10.730;2023-09-19T03:03:08;14.50;99.90
25983;DHT22;13773;48.868;10.730;2023-09-19T03:05:34;14.50;99.90
25983;DHT22;13773;48.868;10.730;2023-09-19T03:08:00;14.60;99.90
25983;DHT22;13773;48.868;10.730;2023-09-19T03:10:26;14.60;99.90
25983;DHT22;13773;48.868;10.730;2023-09-19T03:12:53;14.70;99.90
25983;DHT22;13773;48.868;10.730;2023-09-19T03:15:19;14.70;99.90
25983;DHT22;13773;48.868;10.730;2023-09-19T03:17:47;14.80;99.90
25983;DHT22;13773;48.868;10.730;2023-09-19T03:20:13;14.80;99.90
25983;DHT22;13773;48.868;10.730;2023-09-19T03:22:39;14.80;99.90
25983;DHT22;13773;48.868;10.730;2023-09-19T03:25:06;14.80;99.90
25983;DHT22;13773;48.868;10.730;2023-09-19T03:27:36;14.80;99.90
25983;DHT22;13773;48.868;10.730;2023-09-19T03:30:03;14.80;99.90
25983;DHT22;13773;48.868;10.730;2023-09-19T03:32:33;14.90;99.90
25983;DHT22;13773;48.868;10.730;2023-09-19T03:35:00;14.90;99.90
25983;DHT22;13773;48.868;10.730;2023-09-19T03:37:25;14.90;99.90
25983;DHT22;13773;48.868;10.730;2023-09-19T03:39:51;14.90;99.90
25983;DHT22;13773;48.868;10.730;2023-09-19T03:42:17;14.90;99.90
25983;DHT22;13773;48.868;10.730;2023-09-19T03:44:43;14.90;99.90
25983;DHT22;13773;48.868;10.730;2023-09-19T03:47:08;14.90;99.90
25983;DHT22;13773;48.868;10.730;2023-09-19T03:49:34;14.90;99.90
25983;DHT22;13773;48.868;10.730;2023-09-19T03:52:00;14.90;99.90
25983;DHT22;13773;48.868;10.730;2023-09-19T03:54:25;14.90;99.90
25983;DHT22;13773;48.868;10.730;2023-09-19T03:56:51;14.90;99.90
25983;DHT22;13773;48.868;10.730;2023-09-19T03:59:16;14.90;99.90
25983;DHT22;13773;48.868;10.730;2023-09-19T04:01:43;14.90;99.90
25983;DHT22;13773;48.868;10.730;2023-09-19T04:04:09;14.90;99.90
25983;DHT22;13773;48.868;10.730;2023-09-19T04:06:35;14.90;99.90
25983;DHT22;13773;48.868;10.730;2023-09-19T04:09:02;14.90;99.90
25983;DHT22;13773;48.868;10.730;2023-09-19T04:11:31;12.50;99.90
25983;DHT22;13773;48.868;10.730;2023-09-19T04:13:58;14.90;99.90
25983;DHT22;13773;48.868;10.730;2023-09-19T04:16:24;14.80;99.90
25983;DHT22;13773;48.868;10.730;2023-09-19T04:18:49;14.80;99.90
25983;DHT22;13773;48.868;10.730;2023-09-19T04:21:15;14.60;99.90
25983;DHT22;13773;48.868;10.730;2023-09-19T04:23:41;14.50;99.90
25983;DHT22;13773;48.868;10.730;2023-09-19T04:26:07;14.50;99.90
25983;DHT22;13773;48.868;10.730;2023-09-19T04:28:33;14.30;99.90
25983;DHT22;13773;48.868;10.730;2023-09-19T04:31:00;14.30;99.90
25983;DHT22;13773;48.868;10.730;2023-09-19T04:33:26;14.20;99.90
25983;DHT22;13773;48.868;10.730;2023-09-19T04:35:55;14.20;99.90
25983;DHT22;13773;48.868;10.730;2023-09-19T04:38:21;14.20;99.90
25983;DHT22;13773;48.868;10.730;2023-09-19T04:40:47;14.10;99.90
25983;DHT22;13773;48.868;10.730;2023-09-19T04:43:13;14.00;99.90
25983;DHT22;13773;48.868;10.730;2023-09-19T04:45:39;13.90;99.90
25983;DHT22;13773;48.868;10.730;2023-09-19T04:48:08;13.90;99.90
25983;DHT22;13773;48.868;10.730;2023-09-19T04:50:37;13.90;99.90
25983;DHT22;13773;48.868;10.730;2023-09-19T04:53:04;13.90;99.90
25983;DHT22;13773;48.868;10.730;2023-09-19T04:55:29;13.90;99.90
25983;DHT22;13773;48.868;10.730;2023-09-19T04:57:55;13.80;99.90
25983;DHT22;13773;48.868;10.730;2023-09-19T05:00:22;13.80;99.90
25983;DHT22;13773;48.868;10.730;2023-09-19T05:02:55;13.80;99.90
25983;DHT22;13773;48.868;10.730;2023-09-19T05:05:22;13.80;99.90
25983;DHT22;13773;48.868;10.730;2023-09-19T05:07:49;13.90;99.90
25983;DHT22;13773;48.868;10.730;2023-09-19T05:10:15;13.90;99.90
25983;DHT22;13773;48.868;10.730;2023-09-19T05:12:44;13.90;99.90
25983;DHT22;13773;48.868;10.730;2023-09-19T05:15:14;13.90;99.90
25983;DHT22;13773;48.868;10.730;2023-09-19T05:17:48;13.80;99.90
25983;DHT22;13773;48.868;10.730;2023-09-19T05:20:15;13.80;99.90
25983;DHT22;13773;48.868;10.730;2023-09-19T05:22:56;13.80;99.90
25983;DHT22;13773;48.868;10.730;2023-09-19T05:25:22;13.80;99.90
25983;DHT22;13773;48.868;10.730;2023-09-19T05:27:48;13.90;99.90
25983;DHT22;13773;48.868;10.730;2023-09-19T05:30:14;13.90;99.90
25983;DHT22;13773;48.868;10.730;2023-09-19T05:32:40;14.00;99.90
25983;DHT22;13773;48.868;10.730;2023-09-19T05:35:06;14.10;99.90
25983;DHT22;13773;48.868;10.730;2023-09-19T05:37:35;14.10;99.90
25983;DHT22;13773;48.868;10.730;2023-09-19T05:40:02;14.30;99.90
25983;DHT22;13773;48.868;10.730;2023-09-19T05:42:35;14.40;99.90
25983;DHT22;13773;48.868;10.730;2023-09-19T05:45:00;14.50;99.90
25983;DHT22;13773;48.868;10.730;2023-09-19T05:47:26;14.50;99.90
25983;DHT22;13773;48.868;10.730;2023-09-19T05:49:52;14.60;99.90
25983;DHT22;13773;48.868;10.730;2023-09-19T05:52:17;14.70;99.90
25983;DHT22;13773;48.868;10.730;2023-09-19T05:54:44;14.70;99.90
25983;DHT22;13773;48.868;10.730;2023-09-19T05:57:10;14.80;99.90
25983;DHT22;13773;48.868;10.730;2023-09-19T05:59:37;14.90;99.90
25983;DHT22;13773;48.868;10.730;2023-09-19T06:02:05;14.90;99.90
25983;DHT22;13773;48.868;10.730;2023-09-19T06:04:32;15.00;99.90
25983;DHT22;13773;48.868;10.730;2023-09-19T06:06:57;15.10;99.90
25983;DHT22;13773;48.868;10.730;2023-09-19T06:09:23;15.20;99.90
25983;DHT22;13773;48.868;10.730;2023-09-19T06:11:49;15.30;99.90
25983;DHT22;13773;48.868;10.730;2023-09-19T06:14:15;15.30;99.90
25983;DHT22;13773;48.868;10.730;2023-09-19T06:16:43;15.30;99.90
25983;DHT22;13773;48.868;10.730;2023-09-19T06:19:09;15.30;99.90
25983;DHT22;13773;48.868;10.730;2023-09-19T06:21:36;15.20;99.90
25983;DHT22;13773;48.868;10.730;2023-09-19T06:24:02;15.20;99.90
25983;DHT22;13773;48.868;10.730;2023-09-19T06:26:28;15.20;99.90
25983;DHT22;13773;48.868;10.730;2023-09-19T06:28:55;15.10;99.90
25983;DHT22;13773;48.868;10.730;2023-09-19T06:31:21;15.20;99.90
25983;DHT22;13773;48.868;10.730;2023-09-19T06:33:48;15.10;99.90
25983;DHT22;13773;48.868;10.730;2023-09-19T06:36:14;15.10;99.90
25983;DHT22;13773;48.868;10.730;2023-09-19T06:38:40;15.10;99.90
25983;DHT22;13773;48.868;10.730;2023-09-19T06:41:06;15.10;99.90
25983;DHT22;13773;48.868;10.730;2023-09-19T06:43:35;15.00;99.90
25983;DHT22;13773;48.868;10.730;2023-09-19T06:46:01;15.00;99.90
25983;DHT22;13773;48.868;10.730;2023-09-19T06:48:27;15.10;99.90
25983;DHT22;13773;48.868;10.730;2023-09-19T06:50:55;15.20;99.90
25983;DHT22;13773;48.868;10.730;2023-09-19T06:53:21;15.10;99.90
25983;DHT22;13773;48.868;10.730;2023-09-19T06:55:49;15.30;99.90
25983;DHT22;13773;48.868;10.730;2023-09-19T06:58:15;15.40;99.90
25983;DHT22;13773;48.868;10.730;2023-09-19T07:00:42;15.60;99.90
25983;DHT22;13773;48.868;10.730;2023-09-19T07:03:08;15.70;99.90
25983;DHT22;13773;48.868;10.730;2023-09-19T07:05:38;15.80;99.90
25983;DHT22;13773;48.868;10.730;2023-09-19T07:08:08;15.90;99.90
25983;DHT22;13773;48.868;10.730;2023-09-19T07:10:36;15.90;99.90
25983;DHT22;13773;48.868;10.730;2023-09-19T07:13:03;15.90;99.90
25983;DHT22;13773;48.868;10.730;2023-09-19T07:15:32;15.90;99.90
25983;DHT22;13773;48.868;10.730;2023-09-19T07:18:01;15.90;99.90
25983;DHT22;13773;48.868;10.730;2023-09-19T07:20:27;15.80;99.90
25983;DHT22;13773;48.868;10.730;2023-09-19T07:22:55;15.70;99.90
25983;DHT22;13773;48.868;10.730;2023-09-19T07:25:21;15.70;99.90
25983;DHT22;13773;48.868;10.730;2023-09-19T07:27:47;16.00;99.90
25983;DHT22;13773;48.868;10.730;2023-09-19T07:30:12;15.30;99.90
25983;DHT22;13773;48.868;10.730;2023-09-19T07:32:39;14.90;99.90
25983;DHT22;13773;48.868;10.730;2023-09-19T07:35:06;14.70;99.90
25983;DHT22;13773;48.868;10.730;2023-09-19T07:37:32;14.60;99.90
25983;DHT22;13773;48.868;10.730;2023-09-19T07:40:02;14.50;99.90
25983;DHT22;13773;48.868;10.730;2023-09-19T07:42:35;14.40;99.90
25983;DHT22;13773;48.868;10.730;2023-09-19T07:45:06;14.30;99.90
25983;DHT22;13773;48.868;10.730;2023-09-19T07:47:33;14.20;99.90
25983;DHT22;13773;48.868;10.730;2023-09-19T07:49:59;14.20;99.90
25983;DHT22;13773;48.868;10.730;2023-09-19T07:52:28;14.20;99.90
25983;DHT22;13773;48.868;10.730;2023-09-19T07:54:54;14.20;99.90
25983;DHT22;13773;48.868;10.730;2023-09-19T07:57:20;14.20;99.90
25983;DHT22;13773;48.868;10.730;2023-09-19T07:59:46;14.20;99.90
25983;DHT22;13773;48.868;10.730;2023-09-19T08:02:12;14.10;99.90
25983;DHT22;13773;48.868;10.730;2023-09-19T08:04:45;14.10;99.90
25983;DHT22;13773;48.868;10.730;2023-09-19T08:07:14;13.90;99.90
25983;DHT22;13773;48.868;10.730;2023-09-19T08:09:40;13.70;99.90
25983;DHT22;13773;48.868;10.730;2023-09-19T08:12:07;13.60;99.90
25983;DHT22;13773;48.868;10.730;2023-09-19T08:14:36;13.60;99.90
25983;DHT22;13773;48.868;10.730;2023-09-19T08:17:02;13.60;99.90
25983;DHT22;13773;48.868;10.730;2023-09-19T08:19:27;13.80;99.90
25983;DHT22;13773;48.868;10.730;2023-09-19T08:21:58;13.80;99.90
25983;DHT22;13773;48.868;10.730;2023-09-19T08:24:28;13.80;99.90
25983;DHT22;13773;48.868;10.730;2023-09-19T08:26:57;13.90;99.90
25983;DHT22;13773;48.868;10.730;2023-09-19T08:29:24;14.20;99.90
25983;DHT22;13773;48.868;10.730;2023-09-19T08:31:55;14.30;99.90
25983;DHT22;13773;48.868;10.730;2023-09-19T08:34:22;14.50;99.90
25983;DHT22;13773;48.868;10.730;2023-09-19T08:36:50;14.50;99.90
25983;DHT22;13773;48.868;10.730;2023-09-19T08:39:16;14.60;99.90
25983;DHT22;13773;48.868;10.730;2023-09-19T08:41:42;14.60;99.90
25983;DHT22;13773;48.868;10.730;2023-09-19T08:44:08;14.70;99.90
25983;DHT22;13773;48.868;10.730;2023-09-19T08:46:37;14.80;99.90
25983;DHT22;13773;48.868;10.730;2023-09-19T08:49:19;15.10;99.90
25983;DHT22;13773;48.868;10.730;2023-09-19T08:51:58;15.30;99.90
25983;DHT22;13773;48.868;10.730;2023-09-19T08:54:29;15.40;99.90
25983;DHT22;13773;48.868;10.730;2023-09-19T08:57:00;15.40;99.90
25983;DHT22;13773;48.868;10.730;2023-09-19T08:59:30;15.50;99.90
25983;DHT22;13773;48.868;10.730;2023-09-19T09:01:57;15.60;99.90
25983;DHT22;13773;48.868;10.730;2023-09-19T09:04:24;15.70;99.90
25983;DHT22;13773;48.868;10.730;2023-09-19T09:06:51;15.90;99.90
25983;DHT22;13773;48.868;10.730;2023-09-19T09:09:19;16.00;99.90
25983;DHT22;13773;48.868;10.730;2023-09-19T09:11:45;16.10;99.90
25983;DHT22;13773;48.868;10.730;2023-09-19T09:14:13;16.30;99.90
25983;DHT22;13773;48.868;10.730;2023-09-19T09:16:39;16.40;99.90
25983;DHT22;13773;48.868;10.730;2023-09-19T09:19:05;16.50;99.90
25983;DHT22;13773;48.868;10.730;2023-09-19T09:21:31;16.40;99.90
25983;DHT22;13773;48.868;10.730;2023-09-19T09:24:28;16.40;99.90
25983;DHT22;13773;48.868;10.730;2023-09-19T09:26:55;16.20;99.90
25983;DHT22;13773;48.868;10.730;2023-09-19T09:29:44;16.20;99.90
25983;DHT22;13773;48.868;10.730;2023-09-19T09:32:26;16.10;99.90
25983;DHT22;13773;48.868;10.730;2023-09-19T09:34:53;16.00;99.90
25983;DHT22;13773;48.868;10.730;2023-09-19T09:37:20;16.00;99.90
25983;DHT22;13773;48.868;10.730;2023-09-19T09:40:01;16.10;99.90
25983;DHT22;13773;48.868;10.730;2023-09-19T09:42:42;16.10;99.90
25983;DHT22;13773;48.868;10.730;2023-09-19T09:45:15;19.10;99.90
25983;DHT22;13773;48.868;10.730;2023-09-19T09:47:43;16.30;99.90
25983;DHT22;13773;48.868;10.730;2023-09-19T09:50:31;16.20;99.90
25983;DHT22;13773;48.868;10.730;2023-09-19T09:53:26;16.40;99.90
25983;DHT22;13773;48.868;10.730;2023-09-19T09:56:07;16.70;99.90
25983;DHT22;13773;48.868;10.730;2023-09-19T09:58:51;16.70;99.90
25983;DHT22;13773;48.868;10.730;2023-09-19T10:01:21;16.60;99.90
25983;DHT22;13773;48.868;10.730;2023-09-19T10:03:57;16.40;99.90
25983;DHT22;13773;48.868;10.730;2023-09-19T10:06:23;16.50;99.90
25983;DHT22;13773;48.868;10.730;2023-09-19T10:09:01;16.40;99.90
25983;DHT22;13773;48.868;10.730;2023-09-19T10:11:31;16.50;99.90
25983;DHT22;13773;48.868;10.730;2023-09-19T10:13:58;16.50;99.90
25983;DHT22;13773;48.868;10.730;2023-09-19T10:16:30;16.60;99.90
25983;DHT22;13773;48.868;10.730;2023-09-19T10:19:01;16.80;99.90
25983;DHT22;13773;48.868;10.730;2023-09-19T10:21:28;16.90;99.90
25983;DHT22;13773;48.868;10.730;2023-09-19T10:23:58;17.10;99.90
25983;DHT22;13773;48.868;10.730;2023-09-19T10:26:27;17.10;99.90
25983;DHT22;13773;48.868;10.730;2023-09-19T10:28:57;17.20;99.90
25983;DHT22;13773;48.868;10.730;2023-09-19T10:31:27;17.20;99.90
25983;DHT22;13773;48.868;10.730;2023-09-19T10:33:55;17.20;99.90
25983;DHT22;13773;48.868;10.730;2023-09-19T10:36:24;17.20;99.90
25983;DHT22;13773;48.868;10.730;2023-09-19T10:38:54;17.60;99.90
25983;DHT22;13773;48.868;10.730;2023-09-19T10:41:22;17.80;99.90
25983;DHT22;13773;48.868;10.730;2023-09-19T10:43:48;18.00;99.90
25983;DHT22;13773;48.868;10.730;2023-09-19T10:46:14;18.30;99.90
25983;DHT22;13773;48.868;10.730;2023-09-19T10:48:41;18.70;99.90
25983;DHT22;13773;48.868;10.730;2023-09-19T10:51:10;18.90;99.90
25983;DHT22;13773;48.868;10.730;2023-09-19T10:53:45;18.50;99.90
25983;DHT22;13773;48.868;10.730;2023-09-19T10:56:23;18.30;99.90
25983;DHT22;13773;48.868;10.730;2023-09-19T10:59:08;18.10;99.90
25983;DHT22;13773;48.868;10.730;2023-09-19T11:02:15;18.00;99.90
25983;DHT22;13773;48.868;10.730;2023-09-19T11:04:42;17.80;99.90
25983;DHT22;13773;48.868;10.730;2023-09-19T11:07:11;18.00;99.90
25983;DHT22;13773;48.868;10.730;2023-09-19T11:09:44;18.20;99.90
25983;DHT22;13773;48.868;10.730;2023-09-19T11:12:12;18.20;99.90
25983;DHT22;13773;48.868;10.730;2023-09-19T11:14:39;18.20;99.90
25983;DHT22;13773;48.868;10.730;2023-09-19T11:30:46;19.10;99.90
25983;DHT22;13773;48.868;10.730;2023-09-19T11:46:51;19.50;99.90
25983;DHT22;13773;48.868;10.730;2023-09-19T11:49:31;19.50;99.90
25983;DHT22;13773;48.868;10.730;2023-09-19T11:51:59;19.40;99.90
25983;DHT22;13773;48.868;10.730;2023-09-19T11:54:32;19.60;99.90
25983;DHT22;13773;48.868;10.730;2023-09-19T11:56:59;19.70;99.90
25983;DHT22;13773;48.868;10.730;2023-09-19T11:59:26;19.70;99.90
25983;DHT22;13773;48.868;10.730;2023-09-19T12:02:04;19.70;99.90
25983;DHT22;13773;48.868;10.730;2023-09-19T12:04:44;19.30;99.90
25983;DHT22;13773;48.868;10.730;2023-09-19T12:07:14;19.10;99.90
25983;DHT22;13773;48.868;10.730;2023-09-19T12:09:48;19.00;99.90
25983;DHT22;13773;48.868;10.730;2023-09-19T12:12:23;19.00;99.90
25983;DHT22;13773;48.868;10.730;2023-09-19T12:14:52;19.00;99.90
25983;DHT22;13773;48.868;10.730;2023-09-19T12:17:18;19.20;99.90
25983;DHT22;13773;48.868;10.730;2023-09-19T12:19:55;19.20;99.90
25983;DHT22;13773;48.868;10.730;2023-09-19T12:22:21;19.10;99.90
25983;DHT22;13773;48.868;10.730;2023-09-19T12:24:47;21.70;99.90
25983;DHT22;13773;48.868;10.730;2023-09-19T12:27:13;19.60;99.90
25983;DHT22;13773;48.868;10.730;2023-09-19T12:29:44;19.80;99.90
25983;DHT22;13773;48.868;10.730;2023-09-19T12:32:10;19.70;99.90
25983;DHT22;13773;48.868;10.730;2023-09-19T12:34:36;19.70;99.90
25983;DHT22;13773;48.868;10.730;2023-09-19T12:39:52;19.90;99.90
25983;DHT22;13773;48.868;10.730;2023-09-19T12:42:24;20.30;99.90
25983;DHT22;13773;48.868;10.730;2023-09-19T12:44:54;20.30;99.90
25983;DHT22;13773;48.868;10.730;2023-09-19T12:47:27;20.30;99.90
25983;DHT22;13773;48.868;10.730;2023-09-19T12:50:13;20.40;99.90
25983;DHT22;13773;48.868;10.730;2023-09-19T12:52:44;20.30;99.90
25983;DHT22;13773;48.868;10.730;2023-09-19T12:55:31;20.20;99.90
25983;DHT22;13773;48.868;10.730;2023-09-19T12:58:11;20.40;99.90
25983;DHT22;13773;48.868;10.730;2023-09-19T13:00:41;20.50;99.90
25983;DHT22;13773;48.868;10.730;2023-09-19T13:05:57;20.90;99.90
25983;DHT22;13773;48.868;10.730;2023-09-19T13:08:32;20.90;99.90
25983;DHT22;13773;48.868;10.730;2023-09-19T13:11:17;20.70;99.90
25983;DHT22;13773;48.868;10.730;2023-09-19T13:13:49;20.70;99.90
25983;DHT22;13773;48.868;10.730;2023-09-19T13:16:19;20.70;99.90
25983;DHT22;13773;48.868;10.730;2023-09-19T13:18:55;20.90;99.90
25983;DHT22;13773;48.868;10.730;2023-09-19T13:21:30;20.90;99.90
25983;DHT22;13773;48.868;10.730;2023-09-19T13:24:22;20.80;99.90
25983;DHT22;13773;48.868;10.730;2023-09-19T13:26:48;20.70;99.90
25983;DHT22;13773;48.868;10.730;2023-09-19T13:29:15;20.80;99.90
25983;DHT22;13773;48.868;10.730;2023-09-19T13:31:46;20.80;99.90
25983;DHT22;13773;48.868;10.730;2023-09-19T13:34:12;20.90;99.90
25983;DHT22;13773;48.868;10.730;2023-09-19T13:36:39;20.80;99.90
25983;DHT22;13773;48.868;10.730;2023-09-19T13:39:05;20.50;99.90
25983;DHT22;13773;48.868;10.730;2023-09-19T13:41:32;20.50;99.90
25983;DHT22;13773;48.868;10.730;2023-09-19T13:43:58;20.60;99.90
25983;DHT22;13773;48.868;10.730;2023-09-19T13:46:23;20.70;99.90
25983;DHT22;13773;48.868;10.730;2023-09-19T13:48:51;20.90;99.90
25983;DHT22;13773;48.868;10.730;2023-09-19T13:51:21;20.90;99.90
25983;DHT22;13773;48.868;10.730;2023-09-19T13:53:51;21.00;99.90
25983;DHT22;13773;48.868;10.730;2023-09-19T13:56:16;21.10;99.90
25983;DHT22;13773;48.868;10.730;2023-09-19T13:58:42;21.00;99.90
25983;DHT22;13773;48.868;10.730;2023-09-19T14:01:08;21.10;99.90
25983;DHT22;13773;48.868;10.730;2023-09-19T14:03:41;20.90;99.90
25983;DHT22;13773;48.868;10.730;2023-09-19T14:06:15;20.80;99.90
25983;DHT22;13773;48.868;10.730;2023-09-19T14:08:40;20.80;99.90
25983;DHT22;13773;48.868;10.730;2023-09-19T14:11:09;20.70;99.90
25983;DHT22;13773;48.868;10.730;2023-09-19T14:13:34;20.60;99.90
25983;DHT22;13773;48.868;10.730;2023-09-19T14:16:18;20.60;99.90
25983;DHT22;13773;48.868;10.730;2023-09-19T14:18:45;20.80;99.90
25983;DHT22;13773;48.868;10.730;2023-09-19T14:21:11;20.70;99.90
25983;DHT22;13773;48.868;10.730;2023-09-19T14:23:38;20.70;99.90
25983;DHT22;13773;48.868;10.730;2023-09-19T14:26:05;20.80;99.90
25983;DHT22;13773;48.868;10.730;2023-09-19T14:28:32;20.90;99.90
25983;DHT22;13773;48.868;10.730;2023-09-19T14:31:10;20.80;99.90
25983;DHT22;13773;48.868;10.730;2023-09-19T14:33:37;20.80;99.90
25983;DHT22;13773;48.868;10.730;2023-09-19T14:36:04;20.60;99.90
25983;DHT22;13773;48.868;10.730;2023-09-19T14:38:33;20.70;99.90
25983;DHT22;13773;48.868;10.730;2023-09-19T14:41:00;20.70;99.90
25983;DHT22;13773;48.868;10.730;2023-09-19T14:43:26;20.70;99.90
25983;DHT22;13773;48.868;10.730;2023-09-19T14:45:52;20.80;99.90
25983;DHT22;13773;48.868;10.730;2023-09-19T14:48:18;20.80;99.90
25983;DHT22;13773;48.868;10.730;2023-09-19T14:50:43;20.90;99.90
25983;DHT22;13773;48.868;10.730;2023-09-19T14:53:09;20.70;99.90
25983;DHT22;13773;48.868;10.730;2023-09-19T14:55:39;20.70;99.90
25983;DHT22;13773;48.868;10.730;2023-09-19T14:58:09;20.60;99.90
25983;DHT22;13773;48.868;10.730;2023-09-19T15:00:35;20.70;99.90
25983;DHT22;13773;48.868;10.730;2023-09-19T15:03:01;20.70;99.90
25983;DHT22;13773;48.868;10.730;2023-09-19T15:05:27;20.60;99.90
25983;DHT22;13773;48.868;10.730;2023-09-19T15:07:55;20.80;99.90
25983;DHT22;13773;48.868;10.730;2023-09-19T15:10:22;20.90;99.90
25983;DHT22;13773;48.868;10.730;2023-09-19T15:12:48;20.80;99.90
25983;DHT22;13773;48.868;10.730;2023-09-19T15:15:14;20.80;99.90
25983;DHT22;13773;48.868;10.730;2023-09-19T15:17:39;20.90;99.90
25983;DHT22;13773;48.868;10.730;2023-09-19T15:20:06;20.70;99.90
25983;DHT22;13773;48.868;10.730;2023-09-19T15:22:36;20.80;99.90
25983;DHT22;13773;48.868;10.730;2023-09-19T15:25:02;20.70;99.90
25983;DHT22;13773;48.868;10.730;2023-09-19T15:27:29;20.60;99.90
25983;DHT22;13773;48.868;10.730;2023-09-19T15:29:57;20.50;99.90
25983;DHT22;13773;48.868;10.730;2023-09-19T15:32:24;20.50;99.90
25983;DHT22;13773;48.868;10.730;2023-09-19T15:34:50;20.40;99.90
25983;DHT22;13773;48.868;10.730;2023-09-19T15:37:15;20.30;99.90
25983;DHT22;13773;48.868;10.730;2023-09-19T15:39:41;20.30;99.90
25983;DHT22;13773;48.868;10.730;2023-09-19T15:42:07;20.30;99.90
25983;DHT22;13773;48.868;10.730;2023-09-19T15:44:33;20.30;99.90
25983;DHT22;13773;48.868;10.730;2023-09-19T15:46:59;20.20;99.90
25983;DHT22;13773;48.868;10.730;2023-09-19T15:49:25;20.10;99.90
25983;DHT22;13773;48.868;10.730;2023-09-19T15:51:50;19.90;99.90
25983;DHT22;13773;48.868;10.730;2023-09-19T15:54:16;19.80;99.90
25983;DHT22;13773;48.868;10.730;2023-09-19T15:56:44;19.70;99.90
25983;DHT22;13773;48.868;10.730;2023-09-19T15:59:11;19.60;99.90
25983;DHT22;13773;48.868;10.730;2023-09-19T16:01:41;19.50;99.90
25983;DHT22;13773;48.868;10.730;2023-09-19T16:04:08;19.40;99.90
25983;DHT22;13773;48.868;10.730;2023-09-19T16:06:35;19.40;99.90
25983;DHT22;13773;48.868;10.730;2023-09-19T16:09:01;19.50;99.90
25983;DHT22;13773;48.868;10.730;2023-09-19T16:11:29;19.50;99.90
25983;DHT22;13773;48.868;10.730;2023-09-19T16:13:55;19.50;99.90